createdAt,value
2019-03-27T00:01:24.911Z,60.80
2019-03-27T00:03:57.557Z,58.64
2019-03-27T00:06:29.957Z,61.49
2019-03-27T00:09:02.092Z,58.94
2019-03-27T00:11:36.142Z,62.09
2019-03-27T00:14:08.927Z,59.25
2019-03-27T00:16:41.461Z,61.51
2019-03-27T00:19:13.641Z,58.82
2019-03-27T00:21:45.726Z,61.37
2019-03-27T00:24:18.091Z,59.17
2019-03-27T00:26:50.416Z,61.17
2019-03-27T00:29:22.733Z,59.01
2019-03-27T00:31:55.166Z,61.18
2019-03-27T00:34:27.631Z,58.36
2019-03-27T00:36:59.976Z,60.68
2019-03-27T00:39:32.464Z,57.97
2019-03-27T00:42:04.966Z,60.75
2019-03-27T00:44:37.385Z,58.30
2019-03-27T00:47:09.731Z,61.27
2019-03-27T00:49:41.991Z,58.37
2019-03-27T00:52:14.108Z,61.16
2019-03-27T00:54:46.491Z,58.32
2019-03-27T00:57:19.023Z,61.47
2019-03-27T00:59:52.395Z,58.29
2019-03-27T01:02:25.482Z,60.74
2019-03-27T01:04:57.655Z,58.41
2019-03-27T01:07:30.155Z,60.61
2019-03-27T01:10:02.939Z,58.11
2019-03-27T01:12:35.434Z,60.51
2019-03-27T01:15:08.911Z,57.74
2019-03-27T01:17:41.377Z,60.26
2019-03-27T01:20:15.290Z,57.21
2019-03-27T01:22:48.021Z,60.08
2019-03-27T01:25:20.162Z,56.58
2019-03-27T01:27:52.552Z,59.65
2019-03-27T01:30:24.653Z,56.76
2019-03-27T01:32:56.925Z,59.78
2019-03-27T01:35:29.411Z,56.95
2019-03-27T01:38:01.671Z,59.63
2019-03-27T01:40:33.946Z,56.69
2019-03-27T01:43:06.331Z,59.34
2019-03-27T01:45:38.739Z,56.54
2019-03-27T01:48:11.160Z,59.23
2019-03-27T01:50:43.431Z,56.24
2019-03-27T01:53:15.721Z,58.93
2019-03-27T01:55:48.036Z,56.31
2019-03-27T01:58:20.510Z,58.53
2019-03-27T02:00:52.650Z,56.47
2019-03-27T02:03:25.176Z,58.96
2019-03-27T02:05:57.486Z,57.15
2019-03-27T02:08:29.930Z,58.81
2019-03-27T02:11:02.410Z,58.32
2019-03-27T02:13:34.766Z,58.14
2019-03-27T02:16:07.577Z,60.12
2019-03-27T02:18:41.061Z,56.61
2019-03-27T02:21:13.230Z,59.49
2019-03-27T02:23:45.509Z,56.63
2019-03-27T02:26:17.810Z,58.57
2019-03-27T02:28:50.345Z,55.64
2019-03-27T02:31:22.531Z,58.13
2019-03-27T02:33:54.855Z,55.69
2019-03-27T02:36:27.153Z,56.98
2019-03-27T02:38:59.672Z,56.57
2019-03-27T02:41:32.086Z,56.08
2019-03-27T02:44:04.597Z,58.03
2019-03-27T02:46:37.110Z,55.03
2019-03-27T02:49:09.232Z,57.50
2019-03-27T02:51:42.435Z,54.89
2019-03-27T02:54:14.662Z,56.37
2019-03-27T02:56:47.151Z,56.44
2019-03-27T02:59:19.331Z,55.55
2019-03-27T03:01:51.551Z,57.90
2019-03-27T03:04:24.015Z,55.10
2019-03-27T03:06:56.437Z,57.43
2019-03-27T03:09:28.712Z,54.72
2019-03-27T03:12:01.087Z,55.96
2019-03-27T03:14:33.492Z,57.60
2019-03-27T03:17:06.081Z,55.04
2019-03-27T03:19:38.228Z,57.76
2019-03-27T03:22:10.422Z,54.95
2019-03-27T03:24:42.898Z,57.45
2019-03-27T03:27:15.236Z,54.60
2019-03-27T03:29:47.484Z,56.12
2019-03-27T03:32:19.577Z,54.99
2019-03-27T03:34:51.706Z,54.99
2019-03-27T03:37:23.998Z,57.49
2019-03-27T03:39:56.395Z,54.51
2019-03-27T03:42:28.730Z,56.99
2019-03-27T03:45:00.999Z,54.40
2019-03-27T03:47:34.392Z,56.51
2019-03-27T03:50:08.397Z,54.57
2019-03-27T03:52:45.397Z,55.59
2019-03-27T03:55:14.702Z,57.83
2019-03-27T03:57:46.866Z,55.06
2019-03-27T04:00:19.096Z,57.71
2019-03-27T04:02:51.417Z,54.75
2019-03-27T04:05:23.735Z,56.76
2019-03-27T04:07:55.972Z,54.20
2019-03-27T04:10:29.197Z,54.96
2019-03-27T04:13:01.503Z,56.33
2019-03-27T04:15:33.745Z,53.64
2019-03-27T04:18:06.080Z,55.87
2019-03-27T04:20:38.317Z,53.08
2019-03-27T04:23:10.476Z,54.97
2019-03-27T04:26:07.007Z,54.27
2019-03-27T04:28:16.534Z,53.79
2019-03-27T04:30:48.931Z,56.15
2019-03-27T04:33:21.118Z,52.93
2019-03-27T04:35:53.271Z,55.55
2019-03-27T04:38:25.661Z,52.84
2019-03-27T04:40:57.719Z,55.17
2019-03-27T04:43:30.143Z,52.94
2019-03-27T04:46:02.317Z,53.62
2019-03-27T04:48:34.653Z,54.38
2019-03-27T04:51:07.141Z,52.82
2019-03-27T04:53:39.322Z,55.33
2019-03-27T04:56:12.056Z,52.48
2019-03-27T04:58:44.686Z,54.98
2019-03-27T05:01:17.061Z,52.93
2019-03-27T05:03:49.336Z,54.82
2019-03-27T05:06:21.601Z,53.74
2019-03-27T05:08:53.803Z,54.18
2019-03-27T05:11:26.135Z,56.49
2019-03-27T05:13:58.406Z,53.84
2019-03-27T05:16:30.731Z,56.80
2019-03-27T05:19:03.248Z,54.37
2019-03-27T05:21:35.451Z,57.03
2019-03-27T05:24:07.841Z,54.75
2019-03-27T05:26:40.275Z,57.59
2019-03-27T05:29:12.671Z,55.18
2019-03-27T05:31:44.935Z,58.40
2019-03-27T05:34:17.315Z,55.95
2019-03-27T05:36:49.925Z,58.72
2019-03-27T05:39:22.530Z,57.02
2019-03-27T05:41:54.734Z,58.95
2019-03-27T05:44:27.138Z,58.15
2019-03-27T05:46:59.446Z,59.24
2019-03-27T05:49:31.844Z,59.15
2019-03-27T05:52:04.216Z,60.04
2019-03-27T05:54:36.531Z,60.49
2019-03-27T05:57:09.236Z,60.83
2019-03-27T05:59:41.536Z,65.27
2019-03-27T06:02:13.765Z,63.68
2019-03-27T06:04:46.616Z,58.84
2019-03-27T06:07:18.831Z,53.55
2019-03-27T06:09:51.011Z,55.14
2019-03-27T06:12:23.151Z,55.40
2019-03-27T06:14:55.377Z,56.40
2019-03-27T06:17:27.891Z,58.03
2019-03-27T06:20:00.476Z,59.69
2019-03-27T06:22:32.766Z,61.60
2019-03-27T06:25:05.796Z,63.33
2019-03-27T06:27:37.903Z,66.27
2019-03-27T06:30:10.376Z,60.21
2019-03-27T06:32:42.546Z,54.33
2019-03-27T06:35:14.901Z,51.29
2019-03-27T06:37:47.410Z,50.19
2019-03-27T06:40:19.601Z,50.64
2019-03-27T06:42:52.087Z,53.42
2019-03-27T06:45:24.366Z,52.94
2019-03-27T06:47:56.671Z,53.78
2019-03-27T06:50:29.170Z,54.02
2019-03-27T06:53:02.082Z,54.41
2019-03-27T06:55:34.691Z,54.38
2019-03-27T06:58:07.141Z,56.13
2019-03-27T07:00:39.451Z,56.96
2019-03-27T07:03:11.731Z,56.36
2019-03-27T07:05:44.263Z,57.36
2019-03-27T07:08:16.562Z,58.17
2019-03-27T07:10:49.145Z,58.40
2019-03-27T07:13:21.446Z,58.12
2019-03-27T07:15:53.787Z,58.89
2019-03-27T07:18:39.233Z,59.64
2019-03-27T07:21:02.938Z,58.91
2019-03-27T07:23:35.116Z,58.63
2019-03-27T07:26:07.601Z,59.11
2019-03-27T07:28:39.731Z,58.15
2019-03-27T07:31:12.070Z,59.30
2019-03-27T07:33:44.276Z,58.98
2019-03-27T07:36:16.816Z,58.37
2019-03-27T07:38:49.232Z,58.17
2019-03-27T07:41:21.591Z,58.39
2019-03-27T07:43:54.065Z,57.72
2019-03-27T07:46:26.590Z,58.52
2019-03-27T07:48:59.101Z,59.26
2019-03-27T07:51:31.581Z,59.41
2019-03-27T07:54:04.086Z,59.21
2019-03-27T07:56:37.426Z,59.07
2019-03-27T07:59:09.646Z,58.50
2019-03-27T08:01:41.790Z,57.50
2019-03-27T08:04:14.572Z,58.63
2019-03-27T08:06:46.648Z,57.40
2019-03-27T08:09:18.806Z,57.88
2019-03-27T08:11:50.866Z,58.35
2019-03-27T08:14:23.106Z,57.38
2019-03-27T08:16:55.226Z,58.51
2019-03-27T08:19:27.295Z,57.41
2019-03-27T08:21:59.467Z,56.83
2019-03-27T08:24:31.726Z,54.71
2019-03-27T08:27:03.907Z,55.84
2019-03-27T08:29:35.996Z,54.79
2019-03-27T08:32:08.046Z,54.66
2019-03-27T08:34:40.286Z,54.42
2019-03-27T08:37:12.470Z,55.67
2019-03-27T08:39:44.625Z,54.55
2019-03-27T08:42:16.686Z,55.07
2019-03-27T08:44:49.006Z,54.19
2019-03-27T08:47:21.126Z,54.63
2019-03-27T08:49:53.146Z,53.64
2019-03-27T08:52:25.251Z,53.36
2019-03-27T08:54:57.426Z,52.64
2019-03-27T08:57:29.647Z,51.57
2019-03-27T09:00:02.792Z,52.32
2019-03-27T09:02:35.886Z,52.28
2019-03-27T09:05:09.686Z,53.86
2019-03-27T09:07:41.848Z,48.85
2019-03-27T09:10:15.246Z,50.69
2019-03-27T09:12:47.406Z,49.65
2019-03-27T09:15:19.419Z,50.33
2019-03-27T09:17:51.447Z,50.15
2019-03-27T09:20:23.426Z,49.25
2019-03-27T09:22:55.986Z,48.82
2019-03-27T09:25:28.146Z,48.81
2019-03-27T09:28:00.466Z,48.80
2019-03-27T09:30:32.609Z,47.88
2019-03-27T09:33:04.907Z,48.83
2019-03-27T09:35:37.392Z,47.72
2019-03-27T09:38:09.806Z,46.76
2019-03-27T09:40:41.807Z,47.02
2019-03-27T09:43:13.888Z,46.30
2019-03-27T09:45:45.926Z,44.99
2019-03-27T09:48:18.106Z,47.12
2019-03-27T09:50:50.669Z,47.14
2019-03-27T09:53:22.786Z,47.91
2019-03-27T09:55:54.948Z,44.61
2019-03-27T09:58:27.289Z,45.90
2019-03-27T10:00:59.406Z,44.75
2019-03-27T10:03:31.466Z,43.42
2019-03-27T10:06:03.626Z,44.34
2019-03-27T10:08:35.806Z,45.92
2019-03-27T10:11:07.866Z,41.75
2019-03-27T10:13:40.048Z,43.29
2019-03-27T10:16:12.006Z,44.75
2019-03-27T10:18:47.328Z,44.01
2019-03-27T10:21:17.768Z,43.13
2019-03-27T10:23:50.046Z,43.45
2019-03-27T10:26:22.106Z,43.50
2019-03-27T10:28:54.386Z,42.94
2019-03-27T10:31:26.546Z,43.98
2019-03-27T10:33:58.526Z,44.11
2019-03-27T10:36:30.466Z,45.03
2019-03-27T10:39:02.746Z,43.12
2019-03-27T10:41:34.846Z,44.89
2019-03-27T10:44:07.047Z,43.26
2019-03-27T10:46:39.246Z,44.59
2019-03-27T10:49:11.827Z,42.83
2019-03-27T10:51:44.066Z,46.95
2019-03-27T10:54:16.170Z,42.04
2019-03-27T10:56:48.286Z,42.59
2019-03-27T10:59:20.365Z,42.37
2019-03-27T11:01:53.347Z,42.88
2019-03-27T11:04:25.611Z,45.32
2019-03-27T11:06:58.166Z,43.52
2019-03-27T11:09:30.226Z,41.88
2019-03-27T11:12:02.765Z,42.17
2019-03-27T11:14:38.028Z,41.55
2019-03-27T11:17:08.706Z,41.12
2019-03-27T11:19:42.109Z,42.26
2019-03-27T11:22:14.427Z,41.93
2019-03-27T11:24:47.705Z,43.00
2019-03-27T11:27:19.686Z,41.22
2019-03-27T11:29:52.086Z,40.07
2019-03-27T11:32:24.505Z,40.70
2019-03-27T11:34:56.666Z,40.18
2019-03-27T11:37:28.827Z,39.78
2019-03-27T11:40:00.966Z,39.77
2019-03-27T11:42:33.108Z,40.84
2019-03-27T11:45:09.171Z,39.70
2019-03-27T11:47:41.185Z,38.81
2019-03-27T11:50:13.509Z,40.38
2019-03-27T11:52:45.487Z,39.43
2019-03-27T11:55:18.046Z,39.39
2019-03-27T11:57:50.526Z,40.24
2019-03-27T12:00:22.687Z,40.97
2019-03-27T12:02:54.829Z,42.70
2019-03-27T12:05:26.866Z,41.78
2019-03-27T12:07:58.846Z,42.35
2019-03-27T12:10:31.307Z,43.33
2019-03-27T12:13:03.485Z,43.56
2019-03-27T12:15:40.506Z,43.79
2019-03-27T12:18:12.686Z,43.79
2019-03-27T12:20:57.724Z,43.87
2019-03-27T12:23:18.227Z,44.15
2019-03-27T12:25:50.466Z,45.02
2019-03-27T12:28:22.446Z,45.59
2019-03-27T12:30:54.586Z,46.25
2019-03-27T12:33:26.607Z,46.63
2019-03-27T12:35:58.747Z,46.91
2019-03-27T12:38:30.707Z,46.70
2019-03-27T12:41:02.747Z,47.89
2019-03-27T12:43:35.825Z,48.09
2019-03-27T12:46:08.106Z,48.03
2019-03-27T12:48:40.086Z,49.03
2019-03-27T12:51:13.381Z,49.65
2019-03-27T12:53:45.746Z,50.10
2019-03-27T12:56:17.806Z,50.50
2019-03-27T12:58:49.966Z,50.75
2019-03-27T13:01:21.986Z,51.41
2019-03-27T13:03:53.981Z,50.42
2019-03-27T13:06:26.748Z,52.10
2019-03-27T13:08:58.948Z,52.44
2019-03-27T13:11:31.627Z,52.24
2019-03-27T13:14:03.786Z,53.75
2019-03-27T13:16:35.986Z,54.18
2019-03-27T13:19:08.086Z,54.93
2019-03-27T13:21:40.366Z,54.24
2019-03-27T13:24:12.586Z,55.03
2019-03-27T13:26:44.766Z,55.40
2019-03-27T13:29:16.828Z,53.89
2019-03-27T13:31:48.967Z,55.43
2019-03-27T13:34:21.247Z,55.24
2019-03-27T13:36:53.506Z,55.68
2019-03-27T13:39:25.671Z,55.24
2019-03-27T13:41:57.848Z,55.67
2019-03-27T13:44:36.972Z,55.93
2019-03-27T13:47:03.961Z,55.90
2019-03-27T13:49:36.226Z,55.26
2019-03-27T13:52:08.446Z,55.92
2019-03-27T13:54:40.846Z,55.72
2019-03-27T13:57:13.630Z,55.67
2019-03-27T13:59:45.806Z,55.58
2019-03-27T14:02:17.786Z,55.30
2019-03-27T14:04:50.207Z,55.93
2019-03-27T14:07:22.307Z,55.63
2019-03-27T14:09:54.526Z,55.63
2019-03-27T14:12:26.526Z,55.56
2019-03-27T14:14:58.890Z,56.11
2019-03-27T14:17:31.291Z,55.79
2019-03-27T14:20:03.813Z,56.39
2019-03-27T14:22:36.011Z,56.62
2019-03-27T14:25:12.476Z,56.74
2019-03-27T14:27:45.646Z,57.10
2019-03-27T14:30:39.371Z,57.34
2019-03-27T14:33:11.941Z,56.62
2019-03-27T14:35:44.271Z,56.85
2019-03-27T14:38:16.756Z,56.65
2019-03-27T14:40:49.356Z,57.09
2019-03-27T14:43:22.271Z,56.94
2019-03-27T14:45:54.816Z,56.78
2019-03-27T14:48:27.629Z,57.41
2019-03-27T14:50:59.957Z,56.30
2019-03-27T14:53:32.516Z,57.00
2019-03-27T14:56:04.686Z,56.79
2019-03-27T14:58:37.281Z,56.96
2019-03-27T15:01:09.811Z,57.53
2019-03-27T15:03:42.526Z,57.61
2019-03-27T15:06:14.867Z,57.54
2019-03-27T15:08:47.251Z,57.64
2019-03-27T15:11:19.771Z,57.81
2019-03-27T15:13:52.185Z,57.19
2019-03-27T15:16:24.686Z,57.58
2019-03-27T15:18:57.126Z,58.83
2019-03-27T15:21:29.667Z,58.31
2019-03-27T15:24:02.510Z,58.80
2019-03-27T15:26:35.788Z,59.22
2019-03-27T15:29:08.197Z,59.64
2019-03-27T15:31:40.442Z,59.58
2019-03-27T15:34:12.614Z,60.01
2019-03-27T15:36:45.639Z,60.29
2019-03-27T15:39:17.786Z,60.45
2019-03-27T15:41:49.941Z,60.37
2019-03-27T15:44:22.326Z,60.36
2019-03-27T15:46:54.702Z,60.58
2019-03-27T15:49:26.946Z,60.63
2019-03-27T15:51:59.161Z,60.68
2019-03-27T15:54:31.471Z,60.90
2019-03-27T15:57:03.711Z,61.02
2019-03-27T15:59:36.041Z,61.03
2019-03-27T16:02:08.834Z,61.48
2019-03-27T16:04:41.216Z,61.64
2019-03-27T16:07:13.675Z,61.92
2019-03-27T16:09:46.186Z,61.90
2019-03-27T16:12:18.601Z,62.35
2019-03-27T16:14:51.290Z,62.50
2019-03-27T16:17:23.971Z,65.21
2019-03-27T16:19:56.486Z,59.72
2019-03-27T16:22:28.996Z,54.34
2019-03-27T16:25:01.437Z,50.63
2019-03-27T16:27:34.886Z,50.39
2019-03-27T16:30:07.891Z,50.65
2019-03-27T16:32:40.456Z,51.59
2019-03-27T16:35:13.196Z,51.96
2019-03-27T16:37:45.712Z,52.65
2019-03-27T16:40:22.792Z,53.24
2019-03-27T16:42:55.476Z,53.82
2019-03-27T16:45:28.202Z,54.38
2019-03-27T16:48:00.796Z,55.15
2019-03-27T16:50:33.765Z,55.76
2019-03-27T16:53:06.066Z,56.46
2019-03-27T16:55:38.389Z,56.94
2019-03-27T16:58:11.366Z,57.58
2019-03-27T17:00:43.836Z,58.20
2019-03-27T17:03:16.054Z,58.96
2019-03-27T17:05:53.807Z,59.18
2019-03-27T17:08:23.070Z,59.30
2019-03-27T17:10:55.496Z,60.28
2019-03-27T17:13:27.697Z,60.36
2019-03-27T17:16:00.387Z,61.24
2019-03-27T17:18:33.136Z,61.83
2019-03-27T17:21:05.351Z,62.26
2019-03-27T17:23:37.848Z,65.01
2019-03-27T17:26:10.432Z,59.98
2019-03-27T17:28:43.241Z,54.65
2019-03-27T17:31:15.553Z,51.32
2019-03-27T17:33:48.256Z,51.43
2019-03-27T17:36:20.872Z,52.19
2019-03-27T17:38:53.426Z,52.87
2019-03-27T17:41:28.304Z,53.73
2019-03-27T17:44:00.362Z,54.62
2019-03-27T17:46:32.596Z,55.48
2019-03-27T17:49:05.411Z,56.28
2019-03-27T17:51:37.741Z,57.18
2019-03-27T17:54:20.539Z,58.27
2019-03-27T17:56:44.741Z,59.20
2019-03-27T17:59:19.791Z,60.10
2019-03-27T18:01:51.061Z,61.26
2019-03-27T18:04:23.357Z,62.40
2019-03-27T18:06:55.404Z,65.82
2019-03-27T18:09:27.911Z,60.94
2019-03-27T18:12:00.710Z,55.76
2019-03-27T18:14:33.356Z,51.94
2019-03-27T18:17:06.022Z,52.36
2019-03-27T18:19:38.226Z,52.96
2019-03-27T18:22:10.671Z,53.91
2019-03-27T18:24:42.927Z,55.00
2019-03-27T18:27:15.261Z,55.93
2019-03-27T18:29:48.507Z,56.63
2019-03-27T18:32:20.831Z,57.76
2019-03-27T18:34:53.572Z,58.46
2019-03-27T18:37:25.891Z,59.31
2019-03-27T18:39:58.172Z,60.01
2019-03-27T18:42:30.396Z,60.40
2019-03-27T18:45:02.952Z,61.28
2019-03-27T18:47:37.006Z,62.09
2019-03-27T18:50:09.465Z,62.57
2019-03-27T18:52:41.761Z,65.81
2019-03-27T18:55:25.870Z,60.25
2019-03-27T18:57:59.559Z,55.13
2019-03-27T19:00:22.710Z,52.06
2019-03-27T19:02:55.848Z,52.53
2019-03-27T19:05:28.287Z,53.23
2019-03-27T19:08:00.961Z,54.14
2019-03-27T19:10:33.604Z,55.08
2019-03-27T19:13:06.370Z,56.33
2019-03-27T19:15:38.821Z,57.09
2019-03-27T19:18:11.326Z,58.72
2019-03-27T19:20:43.951Z,59.15
2019-03-27T19:23:16.351Z,60.56
2019-03-27T19:25:49.041Z,62.08
2019-03-27T19:28:21.586Z,64.84
2019-03-27T19:30:54.341Z,60.88
2019-03-27T19:33:27.176Z,55.94
2019-03-27T19:35:59.946Z,52.39
2019-03-27T19:38:32.307Z,53.07
2019-03-27T19:41:04.977Z,54.08
2019-03-27T19:43:37.387Z,54.93
2019-03-27T19:46:09.846Z,56.61
2019-03-27T19:48:42.695Z,57.43
2019-03-27T19:51:15.272Z,58.86
2019-03-27T19:53:47.731Z,59.99
2019-03-27T19:56:20.246Z,60.38
2019-03-27T19:58:52.691Z,61.46
2019-03-27T20:01:25.141Z,62.26
2019-03-27T20:03:58.070Z,65.85
2019-03-27T20:06:30.651Z,61.82
2019-03-27T20:09:05.056Z,56.92
2019-03-27T20:11:38.107Z,53.87
2019-03-27T20:14:10.676Z,54.85
2019-03-27T20:16:43.377Z,55.99
2019-03-27T20:19:16.321Z,57.49
2019-03-27T20:21:48.825Z,58.67
2019-03-27T20:24:21.553Z,60.04
2019-03-27T20:26:54.171Z,60.46
2019-03-27T20:29:26.701Z,62.10
2019-03-27T20:31:59.567Z,63.31
2019-03-27T20:34:31.861Z,66.29
2019-03-27T20:37:05.776Z,61.21
2019-03-27T20:39:38.540Z,56.28
2019-03-27T20:42:12.541Z,53.35
2019-03-27T20:44:45.266Z,54.44
2019-03-27T20:47:17.611Z,55.55
2019-03-27T20:49:49.786Z,56.75
2019-03-27T20:52:22.461Z,58.25
2019-03-27T20:54:55.634Z,59.50
2019-03-27T20:57:28.461Z,60.58
2019-03-27T21:00:00.763Z,61.72
2019-03-27T21:02:33.390Z,62.82
2019-03-27T21:05:07.521Z,65.39
2019-03-27T21:07:40.026Z,61.43
2019-03-27T21:10:12.755Z,56.73
2019-03-27T21:12:46.059Z,53.31
2019-03-27T21:15:18.552Z,54.21
2019-03-27T21:17:50.970Z,55.54
2019-03-27T21:20:23.496Z,56.83
2019-03-27T21:22:56.085Z,58.14
2019-03-27T21:25:28.490Z,59.38
2019-03-27T21:28:01.100Z,60.42
2019-03-27T21:30:33.556Z,61.36
2019-03-27T21:33:06.196Z,62.67
2019-03-27T21:35:39.123Z,65.32
2019-03-27T21:38:13.026Z,60.09
2019-03-27T21:40:45.195Z,55.07
2019-03-27T21:43:17.751Z,52.68
2019-03-27T21:45:49.971Z,53.56
2019-03-27T21:48:22.532Z,54.79
2019-03-27T21:50:54.911Z,56.28
2019-03-27T21:53:27.700Z,57.69
2019-03-27T21:56:00.140Z,59.03
2019-03-27T21:58:32.940Z,60.34
2019-03-27T22:01:05.676Z,61.76
2019-03-27T22:03:38.225Z,62.57
2019-03-27T22:06:10.570Z,65.38
2019-03-27T22:08:43.264Z,60.72
2019-03-27T22:11:16.005Z,55.99
2019-03-27T22:13:48.445Z,53.28
2019-03-27T22:16:20.805Z,54.02
2019-03-27T22:18:53.030Z,55.37
2019-03-27T22:21:25.665Z,56.62
2019-03-27T22:23:58.176Z,58.09
2019-03-27T22:26:30.715Z,58.66
2019-03-27T22:29:03.255Z,59.51
2019-03-27T22:31:35.951Z,61.51
2019-03-27T22:34:08.351Z,62.58
2019-03-27T22:36:41.879Z,65.58
2019-03-27T22:39:14.526Z,61.11
2019-03-27T22:41:47.649Z,56.28
2019-03-27T22:44:20.293Z,53.30
2019-03-27T22:46:53.331Z,54.20
2019-03-27T22:49:25.741Z,55.43
2019-03-27T22:51:58.216Z,56.58
2019-03-27T22:54:30.581Z,58.08
2019-03-27T22:57:03.151Z,59.21
2019-03-27T22:59:35.375Z,60.46
2019-03-27T23:02:07.881Z,61.65
2019-03-27T23:04:40.225Z,62.58
2019-03-27T23:07:13.597Z,65.30
2019-03-27T23:09:45.835Z,60.12
2019-03-27T23:12:18.175Z,55.75
2019-03-27T23:14:50.845Z,53.10
2019-03-27T23:17:23.556Z,54.00
2019-03-27T23:19:55.885Z,55.29
2019-03-27T23:22:28.271Z,56.55
2019-03-27T23:25:00.805Z,57.97
2019-03-27T23:27:33.225Z,59.24
2019-03-27T23:30:09.962Z,60.73
2019-03-27T23:32:42.472Z,61.81
2019-03-27T23:35:15.406Z,62.93
2019-03-27T23:37:47.820Z,65.69
2019-03-27T23:40:20.357Z,61.15
2019-03-27T23:42:52.766Z,56.01
2019-03-27T23:45:25.132Z,53.36
2019-03-27T23:47:58.681Z,54.21
2019-03-27T23:50:31.203Z,55.53
2019-03-27T23:53:03.665Z,56.77
2019-03-27T23:55:36.106Z,57.86
2019-03-27T23:58:08.650Z,59.10
